KFSD/FSD METAR and TAF weather

Enter ICAO airport designator
Station Type Date Time Source
KFSD METAR 2021/08/04 18:56 UTC NOAA

KFSD 041856Z 15016G23KT 10SM BKN210 27/16 A3001 RMK AO2 PK WND 15026/1811 SLP153 T02720161


Station Type Date Time Source
KFSD Decoded METAR 2021/08/04 18:56 UTC NOAA

SIOUX FALLS FOSS FIELD, SD, United States (KFSD) 43-35N 096-45W 434M
Aug 04, 2021 - 02:56 PM EDT / 2021.08.04 1856 UTC
Wind: from the SSE (150 degrees) at 18 MPH (16 KT) gusting to 26 MPH (23 KT):0
Visibility: 10 mile(s):0
Sky conditions: mostly cloudy
Temperature: 81.0 F (27.2 C)
Dew Point: 61.0 F (16.1 C)
Relative Humidity: 50%
Pressure (altimeter): 30.01 in. Hg (1016 hPa)
ob: KFSD 041856Z 15016G23KT 10SM BKN210 27/16 A3001 RMK AO2 PK WND 15026/1811 SLP153 T02720161
cycle: 19

Station Type Date Time Source
KFSD TAF 2021/08/04 18:42 UTC NOAA

TAF KFSD 041738Z 0418/0518 17016G24KT P6SM SCT250
FM050100 16011G18KT P6SM BKN100
FM050300 16009KT P6SM VCSH BKN060 OVC120
FM050700 19007KT P6SM BKN100
FM051300 27005KT P6SM BKN100

Example: see airport list